Time;durP1;ratioP1;P1;durP2;ratioP2;P2;SDS_P1;SDS_P2;PMS_P1;PMS_P2;Temp;Humidity;BMP_temperature;BMP_pressure;BME280_temperature;BME280_humidity;BME280_pressure;Samples;Min_cycle;Max_cycle;Signal;HPM_P1;HPM_P2
2023/02/14 00:01:49;;;;;;;29.65;20.35;;;4.20;99.90;;;;;;5030450;28;20072;-74
2023/02/14 00:04:16;;;;;;;31.80;19.95;;;4.20;99.90;;;;;;5031658;28;20088;-74
2023/02/14 00:06:42;;;;;;;31.30;20.88;;;4.10;99.90;;;;;;5032047;28;20076;-74
2023/02/14 00:09:11;;;;;;;27.50;18.38;;;4.10;99.90;;;;;;5031931;28;20079;-74
2023/02/14 00:11:37;;;;;;;33.67;20.80;;;4.30;99.90;;;;;;5033922;28;20057;-74
2023/02/14 00:16:48;;;;;;;33.33;21.10;;;4.10;99.90;;;;;;5050153;28;20048;-74
2023/02/14 00:19:16;;;;;;;32.85;20.35;;;4.10;99.90;;;;;;5051589;28;20032;-74
2023/02/14 00:21:42;;;;;;;33.67;20.95;;;4.10;99.90;;;;;;5050141;28;20516;-74
2023/02/14 00:24:11;;;;;;;34.60;21.20;;;4.10;99.90;;;;;;5051412;28;20044;-74
2023/02/14 00:26:37;;;;;;;32.67;21.27;;;4.20;99.90;;;;;;5051507;28;20527;-74
2023/02/14 00:29:07;;;;;;;32.55;21.17;;;4.10;99.90;;;;;;5051402;28;20497;-74
2023/02/14 00:31:34;;;;;;;32.65;22.25;;;4.00;99.90;;;;;;5051257;28;20067;-74
2023/02/14 00:33:59;;;;;;;36.00;22.15;;;3.90;99.90;;;;;;5049858;28;20143;-74
2023/02/14 00:36:25;;;;;;;36.13;21.70;;;3.90;99.90;;;;;;5051641;28;20120;-74
2023/02/14 00:38:50;;;;;;;39.08;22.08;;;4.10;99.90;;;;;;5051568;28;20087;-74
2023/02/14 00:41:19;;;;;;;33.67;22.02;;;4.10;99.90;;;;;;5051459;28;20074;-74
2023/02/14 00:43:46;;;;;;;32.55;21.00;;;4.00;99.90;;;;;;5054593;28;20064;-74
2023/02/14 00:46:12;;;;;;;33.78;20.98;;;3.90;99.90;;;;;;5055519;28;20122;-74
2023/02/14 00:48:38;;;;;;;30.98;19.55;;;4.10;99.90;;;;;;5054507;28;20080;-75
2023/02/14 00:51:04;;;;;;;31.75;19.75;;;3.90;99.90;;;;;;5055629;28;20037;-75
2023/02/14 00:53:29;;;;;;;30.02;19.45;;;3.80;99.90;;;;;;5054915;28;20114;-74
2023/02/14 00:55:55;;;;;;;29.98;19.85;;;3.90;99.90;;;;;;5055237;28;20045;-75
2023/02/14 00:58:20;;;;;;;29.73;19.35;;;3.80;99.90;;;;;;5055273;28;20037;-74
2023/02/14 01:00:46;;;;;;;31.73;20.63;;;3.80;99.90;;;;;;5053764;28;20040;-74
2023/02/14 01:03:11;;;;;;;32.22;19.27;;;3.90;99.90;;;;;;5053554;28;20507;-74
2023/02/14 01:05:37;;;;;;;29.38;19.92;;;3.70;99.90;;;;;;5055288;28;20041;-74
2023/02/14 01:08:03;;;;;;;30.05;20.10;;;3.80;99.90;;;;;;5055014;28;20049;-74
2023/02/14 01:10:29;;;;;;;33.92;19.80;;;3.60;99.90;;;;;;5055067;28;20124;-74
2023/02/14 01:12:54;;;;;;;32.67;19.85;;;3.60;99.90;;;;;;5054560;28;20459;-74
2023/02/14 01:15:20;;;;;;;33.30;20.42;;;3.70;99.90;;;;;;5053601;28;20041;-74
2023/02/14 01:17:45;;;;;;;31.67;20.00;;;3.80;99.90;;;;;;5054937;28;20044;-75
2023/02/14 01:20:11;;;;;;;32.65;20.08;;;3.70;99.90;;;;;;5054864;28;20076;-74
2023/02/14 01:22:37;;;;;;;37.15;20.73;;;3.70;99.90;;;;;;5053415;28;20045;-74
2023/02/14 01:25:04;;;;;;;33.30;19.95;;;3.70;99.90;;;;;;5055002;28;20179;-74
2023/02/14 01:27:30;;;;;;;37.50;22.10;;;3.80;99.90;;;;;;5054822;28;20182;-74
2023/02/14 01:29:55;;;;;;;37.65;22.85;;;3.80;99.90;;;;;;5054725;28;20079;-74
2023/02/14 01:32:21;;;;;;;39.05;22.38;;;3.80;99.90;;;;;;5053991;28;20037;-74
2023/02/14 01:34:46;;;;;;;36.25;22.30;;;3.70;99.90;;;;;;5054789;28;20037;-74
2023/02/14 01:37:12;;;;;;;31.35;20.17;;;3.70;99.90;;;;;;5054489;28;20037;-74
2023/02/14 01:39:39;;;;;;;40.30;23.55;;;3.70;99.90;;;;;;5054618;28;20476;-74
2023/02/14 01:42:04;;;;;;;37.08;22.27;;;3.90;99.90;;;;;;5054392;28;20121;-74
2023/02/14 01:44:30;;;;;;;37.67;22.95;;;3.90;99.90;;;;;;5054333;28;20115;-74
2023/02/14 01:46:57;;;;;;;39.88;22.30;;;3.80;99.90;;;;;;5054458;28;20048;-74
2023/02/14 01:49:34;;;;;;;38.03;21.50;;;3.80;99.90;;;;;;5054497;28;20119;-74
2023/02/14 01:52:09;;;;;;;37.80;22.02;;;3.80;99.90;;;;;;5054075;28;20118;-74
2023/02/14 01:54:40;;;;;;;39.53;22.23;;;3.90;99.90;;;;;;5053011;28;20040;-74
2023/02/14 01:57:09;;;;;;;34.60;21.40;;;3.80;99.90;;;;;;5054272;28;20040;-74
2023/02/14 01:59:41;;;;;;;38.70;22.92;;;3.80;99.90;;;;;;5054343;28;20044;-74
2023/02/14 02:02:06;;;;;;;35.80;21.15;;;3.80;99.90;;;;;;5054132;28;20116;-74
2023/02/14 02:04:36;;;;;;;38.03;23.10;;;3.90;99.90;;;;;;5052725;28;20482;-74
2023/02/14 02:07:05;;;;;;;39.95;22.95;;;3.80;99.90;;;;;;5054085;28;20049;-74
2023/02/14 02:09:49;;;;;;;39.55;22.35;;;3.90;99.90;;;;;;5053940;28;20036;-74
2023/02/14 02:12:15;;;;;;;36.17;22.60;;;3.80;99.90;;;;;;5053866;28;20045;-74
2023/02/14 02:14:41;;;;;;;38.92;23.45;;;3.90;99.90;;;;;;5053957;28;20043;-74
2023/02/14 02:17:31;;;;;;;39.10;24.00;;;3.80;99.90;;;;;;5053875;28;20045;-74
2023/02/14 02:20:22;;;;;;;40.10;21.98;;;3.70;99.90;;;;;;5053691;28;20566;-74
2023/02/14 02:23:03;;;;;;;37.75;21.80;;;3.80;99.90;;;;;;5041916;28;20068;-74
2023/02/14 02:25:37;;;;;;;35.58;21.25;;;3.70;99.90;;;;;;5053824;28;20048;-74
2023/02/14 02:28:47;;;;;;;40.65;22.77;;;3.80;99.90;;;;;;5052701;28;20052;-74
2023/02/14 02:31:50;;;;;;;37.22;21.98;;;3.80;99.90;;;;;;5053744;28;20045;-74
2023/02/14 02:34:35;;;;;;;38.25;21.67;;;3.70;99.90;;;;;;5052272;28;20077;-74
2023/02/14 02:37:36;;;;;;;35.45;21.38;;;3.80;99.90;;;;;;5053251;28;20488;-74
2023/02/14 02:40:01;;;;;;;36.60;22.60;;;3.80;99.90;;;;;;5041646;28;20068;-74
2023/02/14 02:42:57;;;;;;;34.03;20.85;;;3.80;99.90;;;;;;5051704;28;20390;-74
2023/02/14 02:48:41;;;;;;;29.70;20.65;;;3.80;99.90;;;;;;5053459;28;20083;-74
2023/02/14 02:54:06;;;;;;;37.20;21.98;;;3.70;99.90;;;;;;5053052;28;20482;-74
2023/02/14 02:56:48;;;;;;;37.15;20.23;;;3.80;99.90;;;;;;5051998;28;20094;-74
2023/02/14 02:59:30;;;;;;;35.60;21.85;;;3.70;99.90;;;;;;5053141;28;20531;-74
2023/02/14 03:02:02;;;;;;;48.00;22.50;;;3.60;99.90;;;;;;5053150;28;20103;-74
2023/02/14 03:10:10;;;;;;;37.35;22.05;;;3.80;99.90;;;;;;5052843;28;20591;-74
2023/02/14 03:12:54;;;;;;;34.20;20.40;;;3.60;99.90;;;;;;5051270;28;20487;-74
2023/02/14 03:15:19;;;;;;;39.50;22.73;;;3.80;99.90;;;;;;5052903;28;20059;-75
2023/02/14 03:18:00;;;;;;;40.63;22.70;;;3.60;99.90;;;;;;5051523;28;20120;-74
2023/02/14 03:20:53;;;;;;;39.00;23.77;;;3.60;99.90;;;;;;5052714;28;20041;-74
2023/02/14 03:23:30;;;;;;;42.58;22.77;;;3.70;99.90;;;;;;5052461;28;20111;-74
2023/02/14 03:26:01;;;;;;;39.30;23.30;;;3.60;99.90;;;;;;5052645;28;20048;-75
2023/02/14 03:28:55;;;;;;;37.85;21.48;;;3.60;99.90;;;;;;5051291;28;20507;-75
2023/02/14 03:31:43;;;;;;;42.58;23.20;;;3.60;99.90;;;;;;5036164;28;20103;-74
2023/02/14 03:34:28;;;;;;;37.83;22.38;;;3.70;99.90;;;;;;5052199;28;20056;-74
2023/02/14 03:37:02;;;;;;;40.00;22.27;;;3.50;99.90;;;;;;5051240;28;20041;-74
2023/02/14 03:39:31;;;;;;;41.25;23.58;;;3.50;99.90;;;;;;5051469;28;20565;-74
2023/02/14 03:42:06;;;;;;;41.85;23.45;;;3.50;99.90;;;;;;5052229;28;20041;-74
2023/02/14 03:44:34;;;;;;;41.05;22.25;;;3.60;99.90;;;;;;5052195;28;20120;-74
2023/02/14 03:47:04;;;;;;;37.83;21.88;;;3.60;99.90;;;;;;5052248;28;20052;-74
2023/02/14 03:49:34;;;;;;;43.63;23.50;;;3.50;99.90;;;;;;5052068;28;20102;-74
2023/02/14 03:52:02;;;;;;;38.70;21.40;;;3.50;99.90;;;;;;5051956;28;20033;-74
2023/02/14 03:54:31;;;;;;;44.13;23.83;;;3.60;99.90;;;;;;5052027;28;20163;-74
2023/02/14 03:57:15;;;;;;;39.90;23.55;;;3.50;99.90;;;;;;5050953;28;20086;-74
2023/02/14 03:59:41;;;;;;;;;;;3.50;99.90;;;;;;5052507;28;20045;-74
2023/02/14 04:02:12;;;;;;;39.60;21.02;;;3.40;99.90;;;;;;5051709;28;20399;-74
2023/02/14 04:04:45;;;;;;;44.67;24.33;;;3.40;99.90;;;;;;5052057;28;20056;-74
2023/02/14 04:07:20;;;;;;;43.25;24.08;;;3.30;99.90;;;;;;5050831;28;20045;-74
2023/02/14 04:09:47;;;;;;;43.45;23.60;;;3.30;99.90;;;;;;5051898;28;20048;-74
2023/02/14 04:12:14;;;;;;;45.10;23.58;;;3.30;99.90;;;;;;5051434;28;20040;-74
2023/02/14 04:14:40;;;;;;;46.88;24.50;;;3.40;99.90;;;;;;5051605;28;20073;-74
2023/02/14 04:19:49;;;;;;;42.35;25.58;;;3.40;99.90;;;;;;5050758;28;20127;-74
2023/02/14 04:22:15;;;;;;;44.25;24.50;;;3.40;99.90;;;;;;5051452;28;20064;-74
2023/02/14 04:24:41;;;;;;;45.70;24.35;;;3.50;99.90;;;;;;5051650;28;20103;-74
2023/02/14 04:27:10;;;;;;;42.33;23.70;;;3.40;99.90;;;;;;5051497;28;20051;-74
2023/02/14 04:29:42;;;;;;;43.35;25.42;;;3.40;99.90;;;;;;5051694;28;20067;-74
2023/02/14 04:32:11;;;;;;;46.10;25.20;;;3.30;99.90;;;;;;5051505;28;20473;-74
2023/02/14 04:34:37;;;;;;;45.95;24.40;;;3.30;99.90;;;;;;5051175;28;20049;-74
2023/02/14 04:37:03;;;;;;;50.03;24.95;;;3.40;99.90;;;;;;5051470;28;20443;-74
2023/02/14 04:39:29;;;;;;;42.45;23.23;;;3.40;99.90;;;;;;5051332;28;20037;-74
2023/02/14 04:41:55;;;;;;;46.90;23.80;;;3.50;99.90;;;;;;5051349;28;20045;-74
2023/02/14 04:44:21;;;;;;;44.90;23.27;;;3.40;99.90;;;;;;5051442;28;20048;-74
2023/02/14 04:46:46;;;;;;;40.35;21.90;;;3.40;99.90;;;;;;5050122;28;20044;-74
2023/02/14 04:49:12;;;;;;;44.42;23.25;;;3.30;99.90;;;;;;5051261;28;20037;-74
2023/02/14 04:51:37;;;;;;;37.00;22.15;;;3.40;99.90;;;;;;5050907;28;20645;-74
2023/02/14 04:54:03;;;;;;;44.13;23.83;;;3.40;99.90;;;;;;5050996;28;20048;-74
2023/02/14 04:56:28;;;;;;;38.90;23.42;;;3.40;99.90;;;;;;5051261;28;20049;-74
2023/02/14 04:58:55;;;;;;;47.72;24.60;;;3.30;99.90;;;;;;5050035;28;20037;-74
2023/02/14 05:01:20;;;;;;;45.72;24.02;;;3.30;99.90;;;;;;5051096;28;20072;-74
2023/02/14 05:03:46;;;;;;;41.85;22.80;;;3.10;99.90;;;;;;5050880;28;20033;-74
2023/02/14 05:06:12;;;;;;;39.83;23.38;;;3.30;99.90;;;;;;5051314;28;20041;-74
2023/02/14 05:08:37;;;;;;;42.55;24.17;;;3.20;99.90;;;;;;5050673;28;20037;-74
2023/02/14 05:11:03;;;;;;;43.58;24.55;;;3.20;99.90;;;;;;5051400;28;20037;-74
2023/02/14 05:13:28;;;;;;;40.63;24.05;;;3.20;99.90;;;;;;5050887;28;20045;-74
2023/02/14 05:15:54;;;;;;;42.45;23.20;;;3.20;99.90;;;;;;5050042;28;20076;-74
2023/02/14 05:18:20;;;;;;;42.47;24.90;;;3.30;99.90;;;;;;5051211;28;20087;-74
2023/02/14 05:20:49;;;;;;;45.28;22.42;;;3.30;99.90;;;;;;5051055;28;20037;-74
2023/02/14 05:23:15;;;;;;;43.22;22.23;;;3.20;99.90;;;;;;5050583;28;20037;-74
2023/02/14 05:25:41;;;;;;;39.60;22.30;;;3.30;99.90;;;;;;5050011;28;20404;-74
2023/02/14 05:28:06;;;;;;;37.58;21.70;;;3.30;99.90;;;;;;5051776;28;20087;-74
2023/02/14 05:30:32;;;;;;;39.85;22.05;;;3.30;99.90;;;;;;5053509;28;20488;-74
2023/02/14 05:32:59;;;;;;;37.08;20.85;;;3.20;99.90;;;;;;5053305;28;20093;-74
2023/02/14 05:35:25;;;;;;;36.72;21.55;;;3.30;99.90;;;;;;5053337;28;20041;-74
2023/02/14 05:37:50;;;;;;;37.70;21.50;;;3.20;99.90;;;;;;5053560;28;20190;-74
2023/02/14 05:40:16;;;;;;;35.80;20.27;;;3.20;99.90;;;;;;5054559;28;20041;-74
2023/02/14 05:42:42;;;;;;;37.05;21.13;;;3.30;99.90;;;;;;5052746;28;20116;-74
2023/02/14 05:45:08;;;;;;;37.17;21.55;;;3.30;99.90;;;;;;5054566;28;20064;-74
2023/02/14 05:47:34;;;;;;;34.05;20.98;;;3.30;99.90;;;;;;5054327;28;20518;-74
2023/02/14 05:49:59;;;;;;;36.00;19.73;;;3.20;99.90;;;;;;5054395;28;20041;-74
2023/02/14 05:52:26;;;;;;;33.53;20.58;;;3.20;99.90;;;;;;5053669;28;20123;-74
2023/02/14 05:54:51;;;;;;;31.45;19.42;;;3.20;99.90;;;;;;5054466;28;20041;-74
2023/02/14 05:57:17;;;;;;;36.55;20.02;;;3.00;99.90;;;;;;5054328;28;20067;-74
2023/02/14 05:59:43;;;;;;;36.70;20.45;;;3.10;99.90;;;;;;5052864;28;20052;-75
2023/02/14 06:02:08;;;;;;;32.83;19.42;;;3.00;99.90;;;;;;5045294;28;20075;-74
2023/02/14 06:04:34;;;;;;;33.67;18.52;;;3.00;99.90;;;;;;5032882;28;20072;-73
2023/02/14 06:06:59;;;;;;;35.90;20.05;;;2.90;99.90;;;;;;5032395;28;20099;-74
2023/02/14 06:09:25;;;;;;;31.27;18.33;;;2.80;99.90;;;;;;5032777;28;20067;-74
2023/02/14 06:11:50;;;;;;;33.05;20.75;;;3.00;99.90;;;;;;5033849;28;20421;-74
2023/02/14 06:14:16;;;;;;;32.80;18.95;;;2.90;99.90;;;;;;5032683;28;20046;-74
2023/02/14 06:16:42;;;;;;;35.47;20.13;;;2.80;99.90;;;;;;5034115;28;20090;-74
2023/02/14 06:19:07;;;;;;;36.40;20.45;;;2.90;99.90;;;;;;5033992;28;20041;-74
2023/02/14 06:21:34;;;;;;;32.63;20.77;;;2.70;99.90;;;;;;5033543;28;20034;-74
2023/02/14 06:23:59;;;;;;;38.55;21.85;;;2.70;99.90;;;;;;5033790;28;20034;-73
2023/02/14 06:26:28;;;;;;;36.25;21.58;;;2.70;99.90;;;;;;5032840;28;20175;-74
2023/02/14 06:28:55;;;;;;;37.88;20.10;;;2.70;99.90;;;;;;5033573;28;20033;-73
2023/02/14 06:31:21;;;;;;;39.65;21.75;;;2.60;99.90;;;;;;5032354;28;20046;-75
2023/02/14 06:33:47;;;;;;;38.47;21.95;;;2.50;99.90;;;;;;5033194;28;20033;-75
2023/02/14 06:36:13;;;;;;;34.97;20.35;;;2.60;99.90;;;;;;5033382;28;20068;-74
2023/02/14 06:38:38;;;;;;;32.65;19.83;;;2.60;99.90;;;;;;5015630;28;20038;-74
2023/02/14 06:41:06;;;;;;;31.08;18.65;;;2.60;99.90;;;;;;5033181;28;20038;-75
2023/02/14 06:43:31;;;;;;;30.33;18.42;;;2.70;99.90;;;;;;5033085;28;20041;-75
2023/02/14 06:45:57;;;;;;;28.00;17.52;;;2.50;99.90;;;;;;5032096;28;20068;-74
2023/02/14 06:48:23;;;;;;;35.00;19.77;;;2.60;99.90;;;;;;5031972;28;20064;-75
2023/02/14 06:50:48;;;;;;;29.13;18.38;;;2.60;99.90;;;;;;5015498;28;20091;-74
2023/02/14 06:53:14;;;;;;;25.30;16.35;;;2.60;99.90;;;;;;5031515;28;20052;-74
2023/02/14 06:55:40;;;;;;;27.58;17.52;;;2.60;99.90;;;;;;5031970;28;20048;-74
2023/02/14 06:58:06;;;;;;;28.25;16.40;;;2.60;99.90;;;;;;5032924;28;20412;-74
2023/02/14 07:00:31;;;;;;;30.38;17.30;;;2.40;99.90;;;;;;5033152;28;20079;-74
2023/02/14 07:02:57;;;;;;;28.38;17.42;;;2.40;99.90;;;;;;5032748;28;20044;-74
2023/02/14 07:05:23;;;;;;;31.23;18.83;;;2.50;99.90;;;;;;5031103;28;20045;-74
2023/02/14 07:07:49;;;;;;;32.55;19.05;;;2.40;99.90;;;;;;5031817;28;20037;-74
2023/02/14 07:10:14;;;;;;;28.55;17.45;;;2.60;99.90;;;;;;5033151;28;20037;-74
2023/02/14 07:12:40;;;;;;;26.58;17.25;;;2.70;99.90;;;;;;5032521;28;20045;-74
2023/02/14 07:15:08;;;;;;;41.05;18.05;;;2.60;99.90;;;;;;5015309;28;20045;-75
2023/02/14 07:17:34;;;;;;;22.33;15.15;;;2.50;99.90;;;;;;5033031;28;20041;-75
2023/02/14 07:19:59;;;;;;;39.03;15.00;;;2.70;99.90;;;;;;5015281;28;20508;-75
2023/02/14 07:22:28;;;;;;;24.30;15.63;;;2.60;99.90;;;;;;5030945;28;20463;-76
2023/02/14 07:24:53;;;;;;;39.05;17.20;;;2.40;99.90;;;;;;5034924;28;20053;-75
2023/02/14 07:27:19;;;;;;;25.55;15.57;;;2.50;99.90;;;;;;5051392;28;20044;-75
2023/02/14 07:29:44;;;;;;;68.72;16.33;;;2.50;99.90;;;;;;5052480;28;20491;-75
2023/02/14 07:32:10;;;;;;;67.78;18.10;;;2.30;99.90;;;;;;5052238;28;20063;-75
2023/02/14 07:34:35;;;;;;;26.20;15.48;;;2.20;99.90;;;;;;5051981;28;20526;-75
2023/02/14 07:37:01;;;;;;;26.50;15.57;;;2.20;99.90;;;;;;5052555;28;20493;-76
2023/02/14 07:39:27;;;;;;;59.10;18.00;;;2.40;99.90;;;;;;5051290;28;20396;-75
2023/02/14 07:41:52;;;;;;;48.10;17.23;;;2.30;99.90;;;;;;5050674;28;20051;-75
2023/02/14 07:44:18;;;;;;;45.28;16.67;;;2.10;99.90;;;;;;5052026;28;20119;-75
2023/02/14 07:46:44;;;;;;;60.30;18.05;;;2.20;99.90;;;;;;5052427;28;20044;-75
2023/02/14 07:49:09;;;;;;;47.15;16.58;;;2.00;99.90;;;;;;5050305;28;20041;-75
2023/02/14 07:51:35;;;;;;;32.33;16.80;;;2.10;99.90;;;;;;5049946;28;20041;-75
2023/02/14 07:54:01;;;;;;;24.50;16.05;;;2.10;99.90;;;;;;5051826;28;20044;-75
2023/02/14 07:56:26;;;;;;;33.30;18.77;;;2.20;99.90;;;;;;5052089;28;20124;-75
2023/02/14 07:58:52;;;;;;;24.80;15.75;;;2.30;99.90;;;;;;5050352;28;20072;-75
2023/02/14 08:01:18;;;;;;;46.00;17.48;;;2.30;99.90;;;;;;5034187;28;20040;-75
2023/02/14 08:03:45;;;;;;;50.63;17.75;;;2.30;99.90;;;;;;5051597;28;20051;-75
2023/02/14 08:06:11;;;;;;;57.97;19.00;;;2.30;99.90;;;;;;5050900;28;20059;-75
2023/02/14 08:08:37;;;;;;;45.38;17.20;;;2.20;99.90;;;;;;5050722;28;20041;-75
2023/02/14 08:11:02;;;;;;;76.47;19.65;;;2.30;99.90;;;;;;5050269;28;20036;-75
2023/02/14 08:13:28;;;;;;;23.70;15.27;;;2.30;99.90;;;;;;5050604;28;20063;-75
2023/02/14 08:16:06;;;;;;;26.95;17.10;;;2.30;99.90;;;;;;5051446;28;20060;-75
2023/02/14 08:18:37;;;;;;;30.77;15.93;;;2.40;99.90;;;;;;5050764;28;20041;-76
2023/02/14 08:21:05;;;;;;;30.15;16.92;;;2.40;99.90;;;;;;5051792;28;20040;-75
2023/02/14 08:23:31;;;;;;;40.78;16.77;;;2.20;99.90;;;;;;5051134;28;20484;-75
2023/02/14 08:25:56;;;;;;;27.65;17.17;;;2.30;99.90;;;;;;5050340;28;20522;-75
2023/02/14 08:28:23;;;;;;;64.20;19.20;;;2.20;99.90;;;;;;5050232;28;20075;-75
2023/02/14 08:30:49;;;;;;;84.75;19.95;;;2.30;99.90;;;;;;5050198;28;20041;-75
2023/02/14 08:33:15;;;;;;;45.42;17.90;;;2.20;99.90;;;;;;5049707;28;20044;-75
2023/02/14 08:35:40;;;;;;;40.65;18.50;;;2.30;99.90;;;;;;5049799;28;20040;-75
2023/02/14 08:38:06;;;;;;;36.63;19.95;;;2.50;99.90;;;;;;5049787;28;20033;-75
2023/02/14 08:40:32;;;;;;;62.03;18.55;;;2.60;99.90;;;;;;5050159;28;20033;-75
2023/02/14 08:42:58;;;;;;;33.65;17.95;;;2.50;99.90;;;;;;5051004;28;20052;-73
2023/02/14 08:45:23;;;;;;;44.28;19.58;;;2.60;99.90;;;;;;5051257;28;20041;-73
2023/02/14 08:47:49;;;;;;;35.08;18.75;;;2.60;99.90;;;;;;5050098;28;20412;-72
2023/02/14 08:50:17;;;;;;;52.08;20.00;;;2.50;99.90;;;;;;5051537;28;20037;-76
2023/02/14 08:52:43;;;;;;;49.63;21.08;;;2.60;99.90;;;;;;5050912;28;20040;-76
2023/02/14 08:55:10;;;;;;;28.65;18.85;;;2.70;99.90;;;;;;5051384;28;20098;-76
2023/02/14 08:57:35;;;;;;;29.88;18.80;;;2.80;99.90;;;;;;5051239;28;20495;-76
2023/02/14 09:00:03;;;;;;;40.28;20.85;;;2.80;99.90;;;;;;5051233;28;20122;-76
2023/02/14 09:02:29;;;;;;;29.10;18.67;;;3.00;99.90;;;;;;5051004;28;20037;-76
2023/02/14 09:04:54;;;;;;;30.55;18.92;;;3.00;99.90;;;;;;5053548;28;20041;-76
2023/02/14 09:07:20;;;;;;;31.25;20.65;;;3.20;99.90;;;;;;5055238;28;20443;-76
2023/02/14 09:09:45;;;;;;;31.77;20.00;;;3.40;99.90;;;;;;5037195;28;20037;-76
2023/02/14 09:12:11;;;;;;;35.83;22.88;;;3.30;99.90;;;;;;5052860;28;20067;-76
2023/02/14 09:14:38;;;;;;;32.20;20.13;;;3.40;99.90;;;;;;5053189;28;20072;-76
2023/02/14 09:17:05;;;;;;;36.58;22.40;;;3.50;99.90;;;;;;5053623;28;20492;-75
2023/02/14 09:19:35;;;;;;;35.22;20.60;;;3.80;99.90;;;;;;5055205;28;20108;-75
2023/02/14 09:22:02;;;;;;;36.17;21.98;;;3.70;99.90;;;;;;5053984;28;20516;-75
2023/02/14 09:24:29;;;;;;;35.10;22.35;;;3.90;99.90;;;;;;5054779;28;20099;-75
2023/02/14 09:26:56;;;;;;;41.83;24.33;;;4.00;99.90;;;;;;5054573;28;20116;-75
2023/02/14 09:29:25;;;;;;;49.63;27.95;;;4.20;99.90;;;;;;5054791;28;20577;-75
2023/02/14 09:31:56;;;;;;;39.60;24.23;;;4.20;99.90;;;;;;5036507;28;20040;-75
2023/02/14 09:34:23;;;;;;;46.17;26.25;;;4.30;99.90;;;;;;5053434;28;20041;-75
2023/02/14 09:39:32;;;;;;;42.30;27.05;;;4.40;99.90;;;;;;5054600;28;20068;-75
2023/02/14 09:42:20;;;;;;;40.92;26.05;;;4.50;99.90;;;;;;5054470;28;20458;-75
2023/02/14 09:44:56;;;;;;;38.80;27.98;;;4.70;99.90;;;;;;5054738;28;20037;-75
2023/02/14 09:47:32;;;;;;;45.58;28.05;;;4.60;99.90;;;;;;5054418;28;20413;-75
2023/02/14 09:49:58;;;;;;;41.97;26.40;;;4.60;99.90;;;;;;5054490;28;20400;-75
2023/02/14 09:52:28;;;;;;;41.10;26.65;;;4.70;99.90;;;;;;5053931;28;20451;-75
2023/02/14 09:54:57;;;;;;;45.95;28.88;;;4.60;99.90;;;;;;5053916;28;20044;-75
2023/02/14 09:57:59;;;;;;;45.25;29.58;;;4.80;99.90;;;;;;5052501;28;20052;-75
2023/02/14 10:00:40;;;;;;;44.40;26.95;;;4.80;99.90;;;;;;5041528;28;20132;-75
2023/02/14 10:03:36;;;;;;;46.95;29.33;;;4.90;99.90;;;;;;5051986;28;20052;-75
2023/02/14 10:06:22;;;;;;;44.25;27.30;;;4.90;99.90;;;;;;5052339;28;20045;-75
2023/02/14 10:08:53;;;;;;;47.78;28.85;;;4.90;99.90;;;;;;5051409;28;20036;-74
2023/02/14 10:11:23;;;;;;;47.53;28.80;;;5.10;99.90;;;;;;5053372;28;20565;-74
2023/02/14 10:14:00;;;;;;;42.78;29.15;;;5.00;99.90;;;;;;5053440;28;20041;-74
2023/02/14 10:16:31;;;;;;;43.45;29.13;;;5.10;99.90;;;;;;5050356;28;20055;-73
2023/02/14 10:19:02;;;;;;;46.80;29.35;;;5.30;99.90;;;;;;5053621;28;20104;-74
2023/02/14 10:21:33;;;;;;;49.90;31.40;;;5.30;99.90;;;;;;5050227;28;20064;-74
2023/02/14 10:24:24;;;;;;;45.15;28.75;;;5.30;99.90;;;;;;5051944;28;20540;-74
2023/02/14 10:26:51;;;;;;;47.65;30.80;;;5.50;99.90;;;;;;5035520;28;20049;-75
2023/02/14 10:29:18;;;;;;;46.40;28.90;;;5.60;99.90;;;;;;5053435;28;20041;-74
2023/02/14 10:31:56;;;;;;;46.03;30.98;;;5.70;99.90;;;;;;5052034;28;20048;-73
2023/02/14 10:34:37;;;;;;;44.10;29.92;;;5.70;99.90;;;;;;5048671;28;20067;-74
2023/02/14 10:37:10;;;;;;;45.03;30.83;;;5.80;99.90;;;;;;5051576;28;20446;-74
2023/02/14 10:40:07;;;;;;;44.38;30.92;;;5.90;99.90;;;;;;5052184;28;20033;-73
2023/02/14 10:42:45;;;;;;;45.63;28.48;;;6.00;99.90;;;;;;5053249;28;20408;-74
2023/02/14 10:45:37;;;;;;;47.65;32.10;;;6.00;99.90;;;;;;5052335;28;20052;-75
2023/02/14 10:48:36;;;;;;;45.80;30.13;;;6.00;99.90;;;;;;5052120;28;20081;-75
2023/02/14 10:51:22;;;;;;;46.58;30.42;;;6.20;99.90;;;;;;5053510;28;20044;-74
2023/02/14 10:54:09;;;;;;;50.33;32.58;;;6.20;99.90;;;;;;5053041;28;20480;-74
2023/02/14 10:56:41;;;;;;;49.25;31.98;;;6.40;99.90;;;;;;5053071;28;20130;-75
2023/02/14 10:59:20;;;;;;;46.95;31.80;;;6.50;99.90;;;;;;5051086;28;20048;-74
2023/02/14 11:01:47;;;;;;;43.42;31.00;;;6.50;99.90;;;;;;5052486;28;20480;-75
2023/02/14 11:04:15;;;;;;;43.78;31.98;;;6.60;99.90;;;;;;5052455;28;20155;-74
2023/02/14 11:06:41;;;;;;;50.25;33.17;;;6.60;99.90;;;;;;5050574;28;20488;-75
2023/02/14 11:09:11;;;;;;;53.08;33.85;;;6.60;99.90;;;;;;5051761;28;20037;-75
2023/02/14 11:11:45;;;;;;;48.30;33.45;;;6.80;99.90;;;;;;5052850;28;20037;-75
2023/02/14 11:14:30;;;;;;;47.42;31.70;;;6.90;99.90;;;;;;5052383;28;20046;-75
2023/02/14 11:16:57;;;;;;;52.25;33.47;;;6.90;99.90;;;;;;5047579;28;20512;-75
2023/02/14 11:19:23;;;;;;;54.28;34.17;;;6.90;99.90;;;;;;5045821;28;20033;-75
2023/02/14 11:21:50;;;;;;;48.83;32.47;;;7.10;99.90;;;;;;5050830;28;20052;-76
2023/02/14 11:24:35;;;;;;;47.85;30.88;;;7.10;99.90;;;;;;5050862;28;20041;-75
2023/02/14 11:27:10;;;;;;;45.60;30.92;;;7.20;99.90;;;;;;5034446;28;20041;-74
2023/02/14 11:29:47;;;;;;;50.78;31.55;;;7.20;99.90;;;;;;5050954;28;20041;-75
2023/02/14 11:32:14;;;;;;;47.38;30.92;;;7.30;99.90;;;;;;5050914;28;20718;-75
2023/02/14 11:34:44;;;;;;;47.20;32.58;;;7.30;99.90;;;;;;5050825;28;20526;-76
2023/02/14 11:37:25;;;;;;;52.85;33.80;;;7.40;99.90;;;;;;5052377;28;20124;-75
2023/02/14 11:39:54;;;;;;;50.03;32.03;;;7.40;99.90;;;;;;5050971;28;20492;-75
2023/02/14 11:42:40;;;;;;;49.63;30.73;;;7.50;99.90;;;;;;5051735;28;20147;-76
2023/02/14 11:45:24;;;;;;;51.40;31.95;;;7.60;99.90;;;;;;5052344;28;20126;-75
2023/02/14 11:48:15;;;;;;;49.28;32.30;;;7.60;99.90;;;;;;5052303;28;20525;-75
2023/02/14 11:50:41;;;;;;;52.78;33.10;;;7.70;99.90;;;;;;5050797;28;20407;-76
2023/02/14 11:53:11;;;;;;;48.20;31.95;;;7.70;99.90;;;;;;5051379;28;20179;-75
2023/02/14 11:55:37;;;;;;;48.75;33.00;;;7.90;99.90;;;;;;5052028;28;20045;-76
2023/02/14 11:58:04;;;;;;;46.83;30.95;;;8.00;99.90;;;;;;5050263;28;20389;-75
2023/02/14 12:00:31;;;;;;;51.33;31.63;;;8.00;99.90;;;;;;5051946;28;20106;-75
2023/02/14 12:03:05;;;;;;;45.50;30.20;;;8.00;99.90;;;;;;5050185;28;20033;-75
2023/02/14 12:05:45;;;;;;;52.70;33.83;;;8.10;99.90;;;;;;5050585;28;20045;-75
2023/02/14 12:08:11;;;;;;;47.67;31.63;;;8.10;99.90;;;;;;5050751;28;20103;-75
2023/02/14 12:10:38;;;;;;;47.13;32.38;;;8.20;99.90;;;;;;5050486;28;20412;-75
2023/02/14 12:13:07;;;;;;;48.78;32.50;;;8.30;99.90;;;;;;5049870;28;20047;-76
2023/02/14 12:15:37;;;;;;;46.45;32.13;;;8.30;99.90;;;;;;5050383;28;20047;-76
2023/02/14 12:18:27;;;;;;;49.08;33.40;;;8.40;99.90;;;;;;5051426;28;20549;-75
2023/02/14 12:21:11;;;;;;;45.95;31.45;;;8.60;99.90;;;;;;5050350;28;20098;-75
2023/02/14 12:23:46;;;;;;;53.03;33.53;;;8.60;99.90;;;;;;5048279;28;20116;-75
2023/02/14 12:26:32;;;;;;;53.40;33.45;;;8.60;99.90;;;;;;5048234;28;20531;-75
2023/02/14 12:29:16;;;;;;;50.05;32.50;;;8.90;99.90;;;;;;5050675;28;20524;-76
2023/02/14 12:31:45;;;;;;;54.45;35.05;;;8.90;99.90;;;;;;5051328;28;20494;-76
2023/02/14 12:34:13;;;;;;;55.00;34.35;;;9.00;99.90;;;;;;5028616;28;20129;-76
2023/02/14 12:37:03;;;;;;;49.40;31.88;;;9.00;99.90;;;;;;5029888;28;20417;-75
2023/02/14 12:39:47;;;;;;;51.28;32.42;;;9.00;99.90;;;;;;5013187;28;20037;-76
2023/02/14 12:42:36;;;;;;;52.13;33.25;;;9.20;99.90;;;;;;5031254;28;20504;-76
2023/02/14 12:45:46;;;;;;;49.42;32.70;;;9.20;99.90;;;;;;5030109;28;20044;-76
2023/02/14 12:48:43;;;;;;;46.45;30.50;;;9.30;99.90;;;;;;5030209;28;20055;-76
2023/02/14 12:51:28;;;;;;;52.03;32.40;;;9.40;99.90;;;;;;5030102;28;20038;-76
2023/02/14 12:54:06;;;;;;;48.00;32.25;;;9.40;99.90;;;;;;5030052;28;20041;-76
2023/02/14 12:56:49;;;;;;;51.38;32.75;;;9.40;99.90;;;;;;5030048;28;20501;-75
2023/02/14 12:59:23;;;;;;;51.53;32.58;;;9.50;99.90;;;;;;5013515;28;20116;-76
2023/02/14 13:01:55;;;;;;;47.40;30.55;;;9.70;99.90;;;;;;5031275;28;20041;-76
2023/02/14 13:04:39;;;;;;;49.95;30.20;;;9.70;99.90;;;;;;5030109;28;20046;-75
2023/02/14 13:07:37;;;;;;;47.65;29.92;;;9.70;99.90;;;;;;5030054;28;20156;-75
2023/02/14 13:10:48;;;;;;;46.20;30.40;;;9.80;99.90;;;;;;5011959;28;20128;-74
2023/02/14 13:13:45;;;;;;;51.25;31.55;;;9.90;99.90;;;;;;5029526;28;20030;-75
2023/02/14 13:16:25;;;;;;;49.85;30.55;;;9.90;99.90;;;;;;5030069;28;20063;-75
2023/02/14 13:19:25;;;;;;;45.92;29.88;;;9.90;99.90;;;;;;5030004;28;20037;-75